Aviation Digital Data Service (ADDS)

Output produced by METARs form (1844 UTC 19 April 2019)
found at http://www.aviationweather.gov/metar/data/
 
METAR text: SBBR 191800Z VRB03KT 9999 VCSH BKN040 FEW045TCU 28/18 Q1016
Conditions at: SBBR (BRASILIA (CIV/MI, BR) observed 1800 UTC 19 April 2019
Temperature: 28.0°C (82°F)
Dewpoint: 18.0°C (64°F) [RH = 55%]
Pressure (altimeter): 30.00 inches Hg (1016.0 mb)
Winds: variable direction winds at 3 MPH (3 knots; 1.5 m/s)
Visibility: 6 or more miles (10+ km)
Ceiling: 4000 feet AGL
Clouds: broken clouds at 4000 feet AGL
few clouds at 4500 feet AGL
Weather: VCSH  (showers in vicinity)

METAR text: SBBR 191700Z 32010KT 260V340 9999 BKN040 27/19 Q1017
Conditions at: SBBR (BRASILIA (CIV/MI, BR) observed 1700 UTC 19 April 2019
Temperature: 27.0°C (81°F)
Dewpoint: 19.0°C (66°F) [RH = 62%]
Pressure (altimeter): 30.03 inches Hg (1017.0 mb)
Winds: from the NW (320 degrees) at 12 MPH (10 knots; 5.1 m/s)
Visibility: 6 or more miles (10+ km)
Ceiling: 4000 feet AGL
Clouds: broken clouds at 4000 feet AGL
Weather: no significant weather observed at this time

METAR text: SBBR 191600Z 04005KT 340V120 9999 BKN040 29/19 Q1018
Conditions at: SBBR (BRASILIA (CIV/MI, BR) observed 1600 UTC 19 April 2019
Temperature: 29.0°C (84°F)
Dewpoint: 19.0°C (66°F) [RH = 55%]
Pressure (altimeter): 30.06 inches Hg (1018.0 mb)
Winds: from the NE (40 degrees) at 6 MPH (5 knots; 2.6 m/s)
Visibility: 6 or more miles (10+ km)
Ceiling: 4000 feet AGL
Clouds: broken clouds at 4000 feet AGL
Weather: no significant weather observed at this time

METAR text: SBBR 191500Z VRB03KT 9999 BKN030 28/18 Q1019
Conditions at: SBBR (BRASILIA (CIV/MI, BR) observed 1500 UTC 19 April 2019
Temperature: 28.0°C (82°F)
Dewpoint: 18.0°C (64°F) [RH = 55%]
Pressure (altimeter): 30.09 inches Hg (1019.0 mb)
Winds: variable direction winds at 3 MPH (3 knots; 1.5 m/s)
Visibility: 6 or more miles (10+ km)
Ceiling: 3000 feet AGL
Clouds: broken clouds at 3000 feet AGL
Weather: no significant weather observed at this time

METAR text: SBBR 191400Z 03005KT 9999 SCT025 27/20 Q1020
Conditions at: SBBR (BRASILIA (CIV/MI, BR) observed 1400 UTC 19 April 2019
Temperature: 27.0°C (81°F)
Dewpoint: 20.0°C (68°F) [RH = 66%]
Pressure (altimeter): 30.12 inches Hg (1020.0 mb)
Winds: from the NNE (30 degrees) at 6 MPH (5 knots; 2.6 m/s)
Visibility: 6 or more miles (10+ km)
Ceiling: at least 12,000 feet AGL
Clouds: scattered clouds at 2500 feet AGL
Weather: no significant weather observed at this time

METAR text: SBBR 191300Z 04005KT CAVOK 26/20 Q1020
Conditions at: SBBR (BRASILIA (CIV/MI, BR) observed 1300 UTC 19 April 2019
Temperature: 26.0°C (79°F)
Dewpoint: 20.0°C (68°F) [RH = 70%]
Pressure (altimeter): 30.12 inches Hg (1020.0 mb)
Winds: from the NE (40 degrees) at 6 MPH (5 knots; 2.6 m/s)
Visibility: 6 or more miles (10+ km)
Ceiling: ceiling and visibility are OK
Clouds: unknown
Weather: no significant weather observed at this time

METAR text: SBBR 191200Z 08003KT CAVOK 25/20 Q1020
Conditions at: SBBR (BRASILIA (CIV/MI, BR) observed 1200 UTC 19 April 2019
Temperature: 25.0°C (77°F)
Dewpoint: 20.0°C (68°F) [RH = 74%]
Pressure (altimeter): 30.12 inches Hg (1020.0 mb)
Winds: from the E (80 degrees) at 3 MPH (3 knots; 1.5 m/s)
Visibility: 6 or more miles (10+ km)
Ceiling: ceiling and visibility are OK
Clouds: unknown
Weather: no significant weather observed at this time

METAR text: SBBR 191100Z 31002KT CAVOK 22/20 Q1019
Conditions at: SBBR (BRASILIA (CIV/MI, BR) observed 1100 UTC 19 April 2019
Temperature: 22.0°C (72°F)
Dewpoint: 20.0°C (68°F) [RH = 88%]
Pressure (altimeter): 30.09 inches Hg (1019.0 mb)
Winds: from the NW (310 degrees) at 2 MPH (2 knots; 1.0 m/s)
Visibility: 6 or more miles (10+ km)
Ceiling: ceiling and visibility are OK
Clouds: unknown
Weather: no significant weather observed at this time

METAR text: SBBR 191000Z 26003KT CAVOK 20/19 Q1019
Conditions at: SBBR (BRASILIA (CIV/MI, BR) observed 1000 UTC 19 April 2019
Temperature: 20.0°C (68°F)
Dewpoint: 19.0°C (66°F) [RH = 94%]
Pressure (altimeter): 30.09 inches Hg (1019.0 mb)
Winds: from the W (260 degrees) at 3 MPH (3 knots; 1.5 m/s)
Visibility: 6 or more miles (10+ km)
Ceiling: ceiling and visibility are OK
Clouds: unknown
Weather: no significant weather observed at this time

METAR text: SBBR 190900Z VRB01KT CAVOK 19/18 Q1018
Conditions at: SBBR (BRASILIA (CIV/MI, BR) observed 0900 UTC 19 April 2019
Temperature: 19.0°C (66°F)
Dewpoint: 18.0°C (64°F) [RH = 94%]
Pressure (altimeter): 30.06 inches Hg (1018.0 mb)
Winds: variable direction winds at 1 MPH (1 knots; 0.5 m/s)
Visibility: 6 or more miles (10+ km)
Ceiling: ceiling and visibility are OK
Clouds: unknown
Weather: no significant weather observed at this time

METAR text: SBBR 190800Z 00000KT 9999 FEW002 19/18 Q1017
Conditions at: SBBR (BRASILIA (CIV/MI, BR) observed 0800 UTC 19 April 2019
Temperature: 19.0°C (66°F)
Dewpoint: 18.0°C (64°F) [RH = 94%]
Pressure (altimeter): 30.03 inches Hg (1017.0 mb)
Winds: calm
Visibility: 6 or more miles (10+ km)
Ceiling: at least 12,000 feet AGL
Clouds: few clouds at 200 feet AGL
Weather: no significant weather observed at this time

METAR text: SBBR 190700Z 00000KT CAVOK 19/18 Q1017
Conditions at: SBBR (BRASILIA (CIV/MI, BR) observed 0700 UTC 19 April 2019
Temperature: 19.0°C (66°F)
Dewpoint: 18.0°C (64°F) [RH = 94%]
Pressure (altimeter): 30.03 inches Hg (1017.0 mb)
Winds: calm
Visibility: 6 or more miles (10+ km)
Ceiling: ceiling and visibility are OK
Clouds: unknown
Weather: no significant weather observed at this time

METAR text: SBBR 190600Z 20002KT CAVOK 21/19 Q1017
Conditions at: SBBR (BRASILIA (CIV/MI, BR) observed 0600 UTC 19 April 2019
Temperature: 21.0°C (70°F)
Dewpoint: 19.0°C (66°F) [RH = 88%]
Pressure (altimeter): 30.03 inches Hg (1017.0 mb)
Winds: from the SSW (200 degrees) at 2 MPH (2 knots; 1.0 m/s)
Visibility: 6 or more miles (10+ km)
Ceiling: ceiling and visibility are OK
Clouds: unknown
Weather: no significant weather observed at this time

METAR text: SBBR 190500Z 34002KT 9999 FEW040 20/19 Q1018
Conditions at: SBBR (BRASILIA (CIV/MI, BR) observed 0500 UTC 19 April 2019
Temperature: 20.0°C (68°F)
Dewpoint: 19.0°C (66°F) [RH = 94%]
Pressure (altimeter): 30.06 inches Hg (1018.0 mb)
Winds: from the NNW (340 degrees) at 2 MPH (2 knots; 1.0 m/s)
Visibility: 6 or more miles (10+ km)
Ceiling: at least 12,000 feet AGL
Clouds: few clouds at 4000 feet AGL
Weather: no significant weather observed at this time

METAR text: SBBR 190400Z 00000KT 9999 FEW040 20/19 Q1018
Conditions at: SBBR (BRASILIA (CIV/MI, BR) observed 0400 UTC 19 April 2019
Temperature: 20.0°C (68°F)
Dewpoint: 19.0°C (66°F) [RH = 94%]
Pressure (altimeter): 30.06 inches Hg (1018.0 mb)
Winds: calm
Visibility: 6 or more miles (10+ km)
Ceiling: at least 12,000 feet AGL
Clouds: few clouds at 4000 feet AGL
Weather: no significant weather observed at this time

METAR text: SBBR 190300Z 19003KT CAVOK 22/19 Q1018
Conditions at: SBBR (BRASILIA (CIV/MI, BR) observed 0300 UTC 19 April 2019
Temperature: 22.0°C (72°F)
Dewpoint: 19.0°C (66°F) [RH = 83%]
Pressure (altimeter): 30.06 inches Hg (1018.0 mb)
Winds: from the S (190 degrees) at 3 MPH (3 knots; 1.5 m/s)
Visibility: 6 or more miles (10+ km)
Ceiling: ceiling and visibility are OK
Clouds: unknown
Weather: no significant weather observed at this time

METAR text: SBBR 190200Z 21002KT 9999 FEW040 22/19 Q1019
Conditions at: SBBR (BRASILIA (CIV/MI, BR) observed 0200 UTC 19 April 2019
Temperature: 22.0°C (72°F)
Dewpoint: 19.0°C (66°F) [RH = 83%]
Pressure (altimeter): 30.09 inches Hg (1019.0 mb)
Winds: from the SSW (210 degrees) at 2 MPH (2 knots; 1.0 m/s)
Visibility: 6 or more miles (10+ km)
Ceiling: at least 12,000 feet AGL
Clouds: few clouds at 4000 feet AGL
Weather: no significant weather observed at this time

METAR text: SBBR 190100Z 00000KT 9999 FEW040 22/20 Q1019
Conditions at: SBBR (BRASILIA (CIV/MI, BR) observed 0100 UTC 19 April 2019
Temperature: 22.0°C (72°F)
Dewpoint: 20.0°C (68°F) [RH = 88%]
Pressure (altimeter): 30.09 inches Hg (1019.0 mb)
Winds: calm
Visibility: 6 or more miles (10+ km)
Ceiling: at least 12,000 feet AGL
Clouds: few clouds at 4000 feet AGL
Weather: no significant weather observed at this time

METAR text: SBBR 190000Z 19002KT 9999 FEW040 23/21 Q1018
Conditions at: SBBR (BRASILIA (CIV/MI, BR) observed 0000 UTC 19 April 2019
Temperature: 23.0°C (73°F)
Dewpoint: 21.0°C (70°F) [RH = 89%]
Pressure (altimeter): 30.06 inches Hg (1018.0 mb)
Winds: from the S (190 degrees) at 2 MPH (2 knots; 1.0 m/s)
Visibility: 6 or more miles (10+ km)
Ceiling: at least 12,000 feet AGL
Clouds: few clouds at 4000 feet AGL
Weather: no significant weather observed at this time

METAR text: SBBR 182300Z 11002KT 9999 FEW040 SCT100 25/21 Q1018
Conditions at: SBBR (BRASILIA (CIV/MI, BR) observed 2300 UTC 18 April 2019
Temperature: 25.0°C (77°F)
Dewpoint: 21.0°C (70°F) [RH = 79%]
Pressure (altimeter): 30.06 inches Hg (1018.0 mb)
Winds: from the ESE (110 degrees) at 2 MPH (2 knots; 1.0 m/s)
Visibility: 6 or more miles (10+ km)
Ceiling: at least 12,000 feet AGL
Clouds: few clouds at 4000 feet AGL
scattered clouds at 10000 feet AGL
Weather: no significant weather observed at this time

METAR text: SBBR 182200Z 22002KT 9999 VCTS FEW040 FEW045CB SCT100 26/20 Q10 17
Conditions at: SBBR (BRASILIA (CIV/MI, BR) observed 2200 UTC 18 April 2019
Temperature: 26.0°C (79°F)
Dewpoint: 20.0°C (68°F) [RH = 70%]
Pressure (altimeter): missing
Winds: from the SW (220 degrees) at 2 MPH (2 knots; 1.0 m/s)
Visibility: 6 or more miles (10+ km)
Ceiling: at least 12,000 feet AGL
Clouds: few clouds at 4000 feet AGL
few clouds at 4500 feet AGL
scattered clouds at 10000 feet AGL
Weather: VCTS  (thunderstorm in vicinity)

METAR text: SBBR 182100Z 01003KT 9999 VCSH SCT040 FEW045TCU SCT100 26/20 Q1 016
Conditions at: SBBR (BRASILIA (CIV/MI, BR) observed 2100 UTC 18 April 2019
Temperature: 26.0°C (79°F)
Dewpoint: 20.0°C (68°F) [RH = 70%]
Pressure (altimeter): missing
Winds: from the N (10 degrees) at 3 MPH (3 knots; 1.5 m/s)
Visibility: 6 or more miles (10+ km)
Ceiling: at least 12,000 feet AGL
Clouds: scattered clouds at 4000 feet AGL
few clouds at 4500 feet AGL
scattered clouds at 10000 feet AGL
Weather: VCSH  (showers in vicinity)

METAR text: SBBR 182000Z 20003KT 9999 SCT040 FEW045TCU SCT100 27/19 Q1016
Conditions at: SBBR (BRASILIA (CIV/MI, BR) observed 2000 UTC 18 April 2019
Temperature: 27.0°C (81°F)
Dewpoint: 19.0°C (66°F) [RH = 62%]
Pressure (altimeter): 30.00 inches Hg (1016.0 mb)
Winds: from the SSW (200 degrees) at 3 MPH (3 knots; 1.5 m/s)
Visibility: 6 or more miles (10+ km)
Ceiling: at least 12,000 feet AGL
Clouds: scattered clouds at 4000 feet AGL
few clouds at 4500 feet AGL
scattered clouds at 10000 feet AGL
Weather: no significant weather observed at this time

METAR text: SBBR 181900Z 17006G17KT 9999 VCSH SCT040 FEW045TCU BKN100 25/20 Q1016 RETS
Conditions at: SBBR (BRASILIA (CIV/MI, BR) observed 1900 UTC 18 April 2019
Temperature: 25.0°C (77°F)
Dewpoint: 20.0°C (68°F) [RH = 74%]
Pressure (altimeter): 30.00 inches Hg (1016.0 mb)
Winds: from the S (170 degrees) at 7 MPH (6 knots; 3.1 m/s)
gusting to 20 MPH (17 knots; 8.7 m/s)
Visibility: 6 or more miles (10+ km)
Ceiling: 10000 feet AGL
Clouds: scattered clouds at 4000 feet AGL
few clouds at 4500 feet AGL
broken clouds at 10000 feet AGL
Weather: VCSH  (showers in vicinity)

METAR text: SBBR 181800Z 11011KT 9999 TS VCSH BKN040 FEW045CB BKN100 23/20 Q1017 RETS
Conditions at: SBBR (BRASILIA (CIV/MI, BR) observed 1800 UTC 18 April 2019
Temperature: 23.0°C (73°F)
Dewpoint: 20.0°C (68°F) [RH = 83%]
Pressure (altimeter): 30.03 inches Hg (1017.0 mb)
Winds: from the ESE (110 degrees) at 13 MPH (11 knots; 5.7 m/s)
Visibility: 6 or more miles (10+ km)
Ceiling: 4000 feet AGL
Clouds: broken clouds at 4000 feet AGL
few clouds at 4500 feet AGL
broken clouds at 10000 feet AGL
Weather: TS VCSH  (thunderstorm, showers in vicinity)

METAR text: SBBR 181713Z 09013KT 9999 4500E -TSRA BKN040 FEW045CB SCT100 24/19 Q1017
Conditions at: SBBR (BRASILIA (CIV/MI, BR) observed 1713 UTC 18 April 2019
Temperature: 24.0°C (75°F)
Dewpoint: 19.0°C (66°F) [RH = 74%]
Pressure (altimeter): 30.03 inches Hg (1017.0 mb)
Winds: from the E (90 degrees) at 15 MPH (13 knots; 6.7 m/s)
Visibility: 6 or more miles (10+ km)
Ceiling: 4000 feet AGL
Clouds: broken clouds at 4000 feet AGL
few clouds at 4500 feet AGL
scattered clouds at 10000 feet AGL
Weather: -TSRA  (light rain associated with thunderstorm(s))

METAR text: SBBR 181700Z 34005KT 9999 VCSH VCTS BKN040 FEW045CB SCT100 27/1 8 Q1017
Conditions at: SBBR (BRASILIA (CIV/MI, BR) observed 1700 UTC 18 April 2019
Temperature: 27.0°C (81°F)
Dewpoint: missing
Pressure (altimeter): 30.03 inches Hg (1017.0 mb)
Winds: from the NNW (340 degrees) at 6 MPH (5 knots; 2.6 m/s)
Visibility: 6 or more miles (10+ km)
Ceiling: 4000 feet AGL
Clouds: broken clouds at 4000 feet AGL
few clouds at 4500 feet AGL
scattered clouds at 10000 feet AGL
Weather: VCSH VCTS  (showers in vicinity, thunderstorm in vicinity)

METAR text: SBBR 181600Z 34006KT 9999 BKN040 FEW045TCU 28/19 Q1018
Conditions at: SBBR (BRASILIA (CIV/MI, BR) observed 1600 UTC 18 April 2019
Temperature: 28.0°C (82°F)
Dewpoint: 19.0°C (66°F) [RH = 58%]
Pressure (altimeter): 30.06 inches Hg (1018.0 mb)
Winds: from the NNW (340 degrees) at 7 MPH (6 knots; 3.1 m/s)
Visibility: 6 or more miles (10+ km)
Ceiling: 4000 feet AGL
Clouds: broken clouds at 4000 feet AGL
few clouds at 4500 feet AGL
Weather: no significant weather observed at this time

METAR text: SBBR 181500Z 22004KT 9999 BKN040 28/18 Q1018
Conditions at: SBBR (BRASILIA (CIV/MI, BR) observed 1500 UTC 18 April 2019
Temperature: 28.0°C (82°F)
Dewpoint: 18.0°C (64°F) [RH = 55%]
Pressure (altimeter): 30.06 inches Hg (1018.0 mb)
Winds: from the SW (220 degrees) at 5 MPH (4 knots; 2.1 m/s)
Visibility: 6 or more miles (10+ km)
Ceiling: 4000 feet AGL
Clouds: broken clouds at 4000 feet AGL
Weather: no significant weather observed at this time

METAR text: SBBR 181400Z 15003KT 9999 SCT040 28/17 Q1019
Conditions at: SBBR (BRASILIA (CIV/MI, BR) observed 1400 UTC 18 April 2019
Temperature: 28.0°C (82°F)
Dewpoint: 17.0°C (63°F) [RH = 51%]
Pressure (altimeter): 30.09 inches Hg (1019.0 mb)
Winds: from the SSE (150 degrees) at 3 MPH (3 knots; 1.5 m/s)
Visibility: 6 or more miles (10+ km)
Ceiling: at least 12,000 feet AGL
Clouds: scattered clouds at 4000 feet AGL
Weather: no significant weather observed at this time

METAR text: SBBR 181300Z 01002KT 9999 SCT030 SCT100 27/19 Q1020
Conditions at: SBBR (BRASILIA (CIV/MI, BR) observed 1300 UTC 18 April 2019
Temperature: 27.0°C (81°F)
Dewpoint: 19.0°C (66°F) [RH = 62%]
Pressure (altimeter): 30.12 inches Hg (1020.0 mb)
Winds: from the N (10 degrees) at 2 MPH (2 knots; 1.0 m/s)
Visibility: 6 or more miles (10+ km)
Ceiling: at least 12,000 feet AGL
Clouds: scattered clouds at 3000 feet AGL
scattered clouds at 10000 feet AGL
Weather: no significant weather observed at this time

METAR text: SBBR 181200Z 29001KT CAVOK 25/20 Q1019
Conditions at: SBBR (BRASILIA (CIV/MI, BR) observed 1200 UTC 18 April 2019
Temperature: 25.0°C (77°F)
Dewpoint: 20.0°C (68°F) [RH = 74%]
Pressure (altimeter): 30.09 inches Hg (1019.0 mb)
Winds: from the WNW (290 degrees) at 1 MPH (1 knots; 0.5 m/s)
Visibility: 6 or more miles (10+ km)
Ceiling: ceiling and visibility are OK
Clouds: unknown
Weather: no significant weather observed at this time

METAR text: SBBR 181100Z 00000KT CAVOK 22/19 Q1019
Conditions at: SBBR (BRASILIA (CIV/MI, BR) observed 1100 UTC 18 April 2019
Temperature: 22.0°C (72°F)
Dewpoint: 19.0°C (66°F) [RH = 83%]
Pressure (altimeter): 30.09 inches Hg (1019.0 mb)
Winds: calm
Visibility: 6 or more miles (10+ km)
Ceiling: ceiling and visibility are OK
Clouds: unknown
Weather: no significant weather observed at this time

METAR text: SBBR 181000Z 20001KT CAVOK 18/17 Q1018
Conditions at: SBBR (BRASILIA (CIV/MI, BR) observed 1000 UTC 18 April 2019
Temperature: 18.0°C (64°F)
Dewpoint: 17.0°C (63°F) [RH = 94%]
Pressure (altimeter): 30.06 inches Hg (1018.0 mb)
Winds: from the SSW (200 degrees) at 1 MPH (1 knots; 0.5 m/s)
Visibility: 6 or more miles (10+ km)
Ceiling: ceiling and visibility are OK
Clouds: unknown
Weather: no significant weather observed at this time

METAR text: SBBR 180900Z 18001KT CAVOK 18/17 Q1017
Conditions at: SBBR (BRASILIA (CIV/MI, BR) observed 0900 UTC 18 April 2019
Temperature: 18.0°C (64°F)
Dewpoint: 17.0°C (63°F) [RH = 94%]
Pressure (altimeter): 30.03 inches Hg (1017.0 mb)
Winds: from the S (180 degrees) at 1 MPH (1 knots; 0.5 m/s)
Visibility: 6 or more miles (10+ km)
Ceiling: ceiling and visibility are OK
Clouds: unknown
Weather: no significant weather observed at this time

METAR text: SBBR 180800Z 23002KT CAVOK 18/17 Q1017
Conditions at: SBBR (BRASILIA (CIV/MI, BR) observed 0800 UTC 18 April 2019
Temperature: 18.0°C (64°F)
Dewpoint: 17.0°C (63°F) [RH = 94%]
Pressure (altimeter): 30.03 inches Hg (1017.0 mb)
Winds: from the SW (230 degrees) at 2 MPH (2 knots; 1.0 m/s)
Visibility: 6 or more miles (10+ km)
Ceiling: ceiling and visibility are OK
Clouds: unknown
Weather: no significant weather observed at this time

METAR text: SBBR 180700Z 18002KT CAVOK 20/19 Q1017
Conditions at: SBBR (BRASILIA (CIV/MI, BR) observed 0700 UTC 18 April 2019
Temperature: 20.0°C (68°F)
Dewpoint: 19.0°C (66°F) [RH = 94%]
Pressure (altimeter): 30.03 inches Hg (1017.0 mb)
Winds: from the S (180 degrees) at 2 MPH (2 knots; 1.0 m/s)
Visibility: 6 or more miles (10+ km)
Ceiling: ceiling and visibility are OK
Clouds: unknown
Weather: no significant weather observed at this time

Forecast for: SBBR (BRASILIA (CIV/MI, BR)
Text: TAF SBBR 191600Z 1918/2018 36008KT 9999 VCSH BKN040 FEW045TCU TX29/1918Z TN19/2008Z
Forecast period: 1800 to 1900 UTC 19 April 2019
Forecast type: FROM: standard forecast or significant change
Winds: from the N (360 degrees) at 9 MPH (8 knots; 4.1 m/s)
Visibility: 6 or more miles 10+ km)
Ceiling: 4000 feet AGL
Clouds: broken clouds at 4000 feet AGL
few clouds at 4500 feet AGL
Weather: VCSH  (showers in vicinity)
Text: BECMG 1919/1921 18007KT 9999 NSW SCT040 FEW045TCU
Forecast period: 1900 to 2300 UTC 19 April 2019
Forecast type: BECOMING: Conditions expected to become as follows by 2100 UTC 19 April 2019
Winds: from the S (180 degrees) at 8 MPH (7 knots; 3.6 m/s)
Visibility: 6 or more miles 10+ km)
Ceiling: at least 12,000 feet AGL
Clouds: scattered clouds at 4000 feet AGL
few clouds at 4500 feet AGL
Weather: NSW  (no significant weather)
Text: FM192300 18005KT FEW040
Forecast period: 2300 UTC 19 April 2019 to 0200 UTC 20 April 2019
Forecast type: FROM: standard forecast or significant change
Winds: from the S (180 degrees) at 6 MPH (5 knots; 2.6 m/s)
Visibility: missing
Ceiling: at least 12,000 feet AGL
Clouds: few clouds at 4000 feet AGL
Weather: no significant weather forecast for this period
Text: BECMG 2002/2004 20005KT CAVOK
Forecast period: 0200 to 1100 UTC 20 April 2019
Forecast type: BECOMING: Conditions expected to become as follows by 0400 UTC 20 April 2019
Winds: from the SSW (200 degrees) at 6 MPH (5 knots; 2.6 m/s)
Visibility: 6 or more miles 10+ km)
Ceiling: unknown
Clouds: missing
Weather: NSW  (no significant weather)
Text: BECMG 2011/2013 07007KT 9999 SCT035
Forecast period: 1100 to 1600 UTC 20 April 2019
Forecast type: BECOMING: Conditions expected to become as follows by 1300 UTC 20 April 2019
Winds: from the ENE (70 degrees) at 8 MPH (7 knots; 3.6 m/s)
Visibility: 6 or more miles 10+ km)
Ceiling: at least 12,000 feet AGL
Clouds: scattered clouds at 3500 feet AGL
Weather: NSW  (no significant weather)
Text: FM201600 35006KT 9999 BKN040 FEW045TCU RMK PEJ
Forecast period: 1600 to 1800 UTC 20 April 2019
Forecast type: FROM: standard forecast or significant change
Winds: from the N (350 degrees) at 7 MPH (6 knots; 3.1 m/s)
Visibility: 6 or more miles 10+ km)
Ceiling: 4000 feet AGL
Clouds: broken clouds at 4000 feet AGL
few clouds at 4500 feet AGL
Weather: no significant weather forecast for this period